Terminal Aerodrome Forecast
Issued by NWS St Louis, MO

Home | Current Version | Previous Version | Text Only | Print | Product List | Glossary On
Versions: 1 2 3 4 5 6 7 8 9 10 11 12 13 14
258
FTUS43 KLSX 201124
TAFCOU
TAF
KCOU 201124Z 2012/2112 18007KT P6SM SCT250
     FM201500 24011KT P6SM SCT250
     FM201900 28008KT P6SM FEW200
     FM202200 33009KT P6SM SCT140
     FM210000 01010KT P6SM SCT120
     FM210600 05009KT P6SM BKN025=

USA.gov is the U.S. government's official web portal to all federal, state and local government web resources and services.